Swan, Texas
Current Conditions -  °F | °C
As of 3:53 PM on Thursday 27 Nov 2014 (Local Time) from KTYR Reporting Station
Clear Clear  
Wind Chill: 61°   Ceiling: Unl
Heat Index: 61°   Visibility: 10mi
Dew Point: 19°   Wind: 3mph
Humidity: 20%   Direction: 120°ESE
Pressure: 30.42"   Gusts: NA
Location:  32.394°N, 95.4356°W
Report Text: KTYR 272153Z 12003KT 10SM CLR 16/M07 A3042 RMK AO2 SLP300 T01611072
Loading
Personal Weather Stations






























Interactive Weather Map New forecast layout! Learn more

10-Day Weather Forecast

Advertisements
Track Severe Weather on mobile